createdAt,value
2023-01-30T00:01:41.670Z,26.13
2023-01-30T00:04:08.352Z,24.85
2023-01-30T00:06:34.934Z,24.75
2023-01-30T00:09:01.634Z,27.90
2023-01-30T00:11:30.135Z,28.17
2023-01-30T00:13:57.110Z,30.05
2023-01-30T00:16:23.916Z,28.98
2023-01-30T00:18:50.892Z,28.08
2023-01-30T00:21:18.009Z,30.35
2023-01-30T00:23:45.044Z,31.30
2023-01-30T00:26:12.245Z,28.60
2023-01-30T00:28:39.803Z,29.55
2023-01-30T00:31:07.304Z,31.00
2023-01-30T00:33:34.011Z,33.55
2023-01-30T00:36:02.561Z,25.20
2023-01-30T00:38:29.317Z,32.80
2023-01-30T00:40:56.217Z,33.90
2023-01-30T00:43:41.419Z,35.35
2023-01-30T00:46:41.668Z,35.38
2023-01-30T00:49:08.324Z,32.63
2023-01-30T00:51:34.905Z,34.45
2023-01-30T00:54:01.479Z,36.85
2023-01-30T00:56:28.175Z,37.88
2023-01-30T00:58:54.909Z,35.97
2023-01-30T01:01:21.496Z,38.83
2023-01-30T01:03:48.289Z,38.45
2023-01-30T01:06:14.899Z,36.10
2023-01-30T01:08:41.517Z,36.05
2023-01-30T01:11:08.182Z,36.35
2023-01-30T01:13:35.164Z,38.35
2023-01-30T01:16:01.958Z,39.65
2023-01-30T01:18:28.642Z,41.08
2023-01-30T01:20:55.306Z,39.70
2023-01-30T01:23:22.009Z,38.45
2023-01-30T01:25:48.612Z,38.20
2023-01-30T01:28:15.939Z,38.92
2023-01-30T01:30:42.577Z,38.10
2023-01-30T01:33:09.215Z,38.30
2023-01-30T01:35:40.873Z,36.58
2023-01-30T01:38:07.533Z,35.58
2023-01-30T01:40:52.780Z,35.25
2023-01-30T01:43:22.205Z,35.70
2023-01-30T01:45:52.310Z,40.00
2023-01-30T01:48:45.068Z,37.22
2023-01-30T01:51:18.132Z,36.50
2023-01-30T01:53:56.909Z,32.97
2023-01-30T01:56:24.419Z,34.80
2023-01-30T01:58:56.076Z,34.78
2023-01-30T02:01:23.144Z,34.50
2023-01-30T02:03:56.763Z,32.83
2023-01-30T02:06:23.558Z,33.88
2023-01-30T02:08:54.758Z,33.05
2023-01-30T02:11:46.376Z,33.10
2023-01-30T02:14:14.554Z,30.17
2023-01-30T02:16:42.953Z,33.10
2023-01-30T02:19:22.730Z,29.80
2023-01-30T02:22:12.345Z,33.55
2023-01-30T02:25:06.476Z,33.85
2023-01-30T02:27:42.154Z,29.98
2023-01-30T02:30:11.460Z,29.45
2023-01-30T02:35:28.472Z,29.77
2023-01-30T02:38:07.234Z,29.70
2023-01-30T02:40:57.513Z,23.52
2023-01-30T02:43:24.107Z,29.40
2023-01-30T02:45:56.472Z,29.63
2023-01-30T02:48:30.200Z,27.55
2023-01-30T02:51:05.664Z,27.25
2023-01-30T02:53:36.777Z,27.83
2023-01-30T02:56:03.637Z,29.67
2023-01-30T02:58:44.508Z,28.00
2023-01-30T03:01:33.064Z,29.05
2023-01-30T03:04:27.769Z,29.17
2023-01-30T03:07:12.637Z,31.50
2023-01-30T03:09:51.146Z,29.92
2023-01-30T03:12:46.831Z,30.75
2023-01-30T03:15:23.360Z,28.23
2023-01-30T03:17:50.251Z,33.20
2023-01-30T03:20:20.027Z,29.15
2023-01-30T03:22:47.293Z,33.65
2023-01-30T03:25:19.520Z,31.08
2023-01-30T03:27:46.752Z,28.88
2023-01-30T03:30:13.677Z,31.92
2023-01-30T03:32:40.302Z,31.02
2023-01-30T03:35:07.195Z,28.60
2023-01-30T03:37:33.992Z,29.33
2023-01-30T03:40:00.824Z,29.60
2023-01-30T03:42:27.543Z,30.45
2023-01-30T03:44:54.167Z,29.92
2023-01-30T03:47:20.766Z,31.80
2023-01-30T03:49:47.442Z,30.92
2023-01-30T03:52:14.101Z,31.75
2023-01-30T03:54:40.698Z,33.50
2023-01-30T03:57:07.302Z,28.08
2023-01-30T03:59:33.947Z,30.05
2023-01-30T04:02:00.606Z,30.23
2023-01-30T04:04:27.230Z,27.10
2023-01-30T04:06:53.808Z,29.45
2023-01-30T04:09:20.495Z,29.95
2023-01-30T04:11:47.135Z,26.63
2023-01-30T04:14:13.789Z,29.30
2023-01-30T04:16:40.703Z,29.95
2023-01-30T04:19:07.332Z,28.58
2023-01-30T04:21:34.285Z,26.10
2023-01-30T04:24:00.948Z,27.90
2023-01-30T04:26:27.594Z,27.42
2023-01-30T04:28:54.352Z,25.05
2023-01-30T04:31:21.001Z,25.60
2023-01-30T04:33:47.632Z,28.10
2023-01-30T04:36:14.488Z,26.83
2023-01-30T04:38:41.238Z,28.92
2023-01-30T04:41:08.042Z,27.85
2023-01-30T04:43:34.731Z,28.42
2023-01-30T04:46:01.385Z,25.95
2023-01-30T04:48:28.338Z,23.88
2023-01-30T04:50:56.606Z,27.17
2023-01-30T04:53:24.942Z,28.95
2023-01-30T04:55:51.677Z,25.00
2023-01-30T04:58:19.597Z,26.05
2023-01-30T05:00:47.458Z,27.17
2023-01-30T05:03:15.200Z,26.92
2023-01-30T05:05:42.041Z,26.67
2023-01-30T05:08:08.909Z,26.42
2023-01-30T05:10:35.666Z,25.38
2023-01-30T05:13:05.964Z,25.48
2023-01-30T05:15:33.633Z,25.45
2023-01-30T05:18:01.021Z,27.10
2023-01-30T05:20:27.662Z,26.13
2023-01-30T05:22:54.316Z,23.40
2023-01-30T05:25:21.165Z,27.70
2023-01-30T05:27:47.861Z,24.83
2023-01-30T05:30:14.593Z,25.70
2023-01-30T05:32:41.202Z,20.75
2023-01-30T05:35:08.192Z,22.73
2023-01-30T05:37:34.761Z,23.27
2023-01-30T05:40:01.379Z,20.88
2023-01-30T05:42:27.976Z,21.08
2023-01-30T05:44:54.631Z,24.30
2023-01-30T05:47:21.247Z,20.33
2023-01-30T05:49:47.889Z,21.73
2023-01-30T05:52:14.511Z,19.05
2023-01-30T05:54:41.100Z,20.85
2023-01-30T05:57:07.733Z,21.42
2023-01-30T05:59:34.359Z,18.40
2023-01-30T06:02:00.991Z,19.30
2023-01-30T06:04:27.604Z,18.55
2023-01-30T06:06:54.216Z,17.13
2023-01-30T06:09:20.854Z,17.25
2023-01-30T06:11:47.523Z,16.73
2023-01-30T06:14:14.161Z,17.75
2023-01-30T06:16:40.876Z,18.20
2023-01-30T06:19:08.413Z,17.10
2023-01-30T06:21:35.065Z,15.77
2023-01-30T06:24:02.374Z,15.40
2023-01-30T06:26:29.193Z,15.55
2023-01-30T06:28:55.854Z,13.95
2023-01-30T06:31:22.616Z,13.93
2023-01-30T06:33:49.513Z,15.57
2023-01-30T06:36:16.152Z,17.67
2023-01-30T06:38:42.808Z,15.60
2023-01-30T06:41:09.673Z,13.82
2023-01-30T06:43:36.301Z,14.27
2023-01-30T06:46:03.074Z,13.75
2023-01-30T06:48:29.696Z,16.58
2023-01-30T06:50:56.406Z,15.95
2023-01-30T06:53:25.419Z,17.38
2023-01-30T06:55:52.039Z,16.77
2023-01-30T06:58:18.877Z,14.75
2023-01-30T07:00:45.528Z,16.67
2023-01-30T07:03:13.896Z,16.83
2023-01-30T07:05:41.658Z,16.08
2023-01-30T07:08:08.801Z,17.23
2023-01-30T07:10:36.024Z,17.45
2023-01-30T07:13:03.730Z,14.68
2023-01-30T07:15:30.863Z,16.95
2023-01-30T07:17:57.470Z,16.77
2023-01-30T07:20:24.251Z,16.40
2023-01-30T07:22:55.478Z,16.35
2023-01-30T07:25:26.043Z,19.30
2023-01-30T07:27:53.599Z,16.35
2023-01-30T07:30:20.796Z,19.02
2023-01-30T07:32:51.638Z,15.02
2023-01-30T07:35:19.380Z,15.98
2023-01-30T07:37:50.451Z,15.00
2023-01-30T07:40:18.735Z,19.38
2023-01-30T07:42:56.943Z,15.45
2023-01-30T07:45:24.021Z,15.77
2023-01-30T07:47:50.767Z,13.38
2023-01-30T07:50:18.021Z,15.98
2023-01-30T07:52:45.003Z,14.40
2023-01-30T07:55:11.654Z,14.75
2023-01-30T07:57:38.209Z,13.07
2023-01-30T08:00:05.529Z,15.82
2023-01-30T08:02:32.112Z,14.20
2023-01-30T08:04:58.745Z,13.10
2023-01-30T08:07:25.372Z,14.02
2023-01-30T08:09:52.620Z,15.43
2023-01-30T08:12:19.242Z,14.70
2023-01-30T08:14:45.906Z,14.50
2023-01-30T08:17:12.799Z,14.48
2023-01-30T08:19:39.394Z,15.27
2023-01-30T08:22:05.971Z,15.25
2023-01-30T08:24:32.564Z,16.13
2023-01-30T08:27:00.348Z,16.38
2023-01-30T08:29:26.974Z,15.32
2023-01-30T08:31:57.904Z,14.80
2023-01-30T08:34:25.265Z,16.23
2023-01-30T08:36:52.134Z,17.40
2023-01-30T08:39:18.863Z,14.43
2023-01-30T08:41:45.530Z,15.77
2023-01-30T08:44:12.691Z,16.00
2023-01-30T08:46:40.041Z,16.90
2023-01-30T08:49:06.978Z,14.32
2023-01-30T08:51:33.787Z,15.25
2023-01-30T08:54:00.403Z,16.02
2023-01-30T08:56:27.052Z,13.90
2023-01-30T08:58:53.761Z,15.10
2023-01-30T09:01:20.447Z,15.95
2023-01-30T09:03:47.922Z,13.07
2023-01-30T09:06:14.594Z,15.07
2023-01-30T09:08:41.249Z,11.68
2023-01-30T09:11:07.927Z,13.10
2023-01-30T09:13:35.370Z,11.20
2023-01-30T09:16:02.331Z,12.98
2023-01-30T09:18:28.974Z,13.18
2023-01-30T09:21:03.644Z,13.63
2023-01-30T09:23:30.255Z,10.45
2023-01-30T09:25:56.930Z,14.95
2023-01-30T09:28:23.652Z,9.45
2023-01-30T09:30:50.342Z,10.20
2023-01-30T09:33:20.308Z,10.70
2023-01-30T09:35:48.334Z,11.20
2023-01-30T09:38:15.151Z,11.07
2023-01-30T09:41:16.466Z,10.25
2023-01-30T09:44:08.035Z,10.40
2023-01-30T09:46:34.738Z,9.93
2023-01-30T09:49:07.549Z,9.05
2023-01-30T09:51:48.181Z,8.13
2023-01-30T09:54:32.158Z,9.35
2023-01-30T09:57:21.646Z,8.07
2023-01-30T10:00:14.278Z,9.27
2023-01-30T10:03:08.671Z,9.65
2023-01-30T10:05:47.602Z,8.27
2023-01-30T10:08:35.640Z,8.65
2023-01-30T10:11:26.453Z,7.85
2023-01-30T10:14:30.825Z,8.60
2023-01-30T10:17:09.354Z,8.20
2023-01-30T10:19:50.294Z,10.83
2023-01-30T10:22:38.685Z,8.23
2023-01-30T10:25:27.953Z,8.50
2023-01-30T10:28:04.016Z,6.22
2023-01-30T10:30:31.053Z,6.65
2023-01-30T10:33:04.299Z,8.90
2023-01-30T10:35:42.958Z,7.90
2023-01-30T10:38:20.864Z,8.68
2023-01-30T10:40:59.338Z,7.53
2023-01-30T10:43:34.270Z,7.27
2023-01-30T10:46:10.243Z,10.02
2023-01-30T10:48:55.102Z,7.75
2023-01-30T10:51:47.764Z,9.68
2023-01-30T10:54:40.018Z,8.40
2023-01-30T10:57:32.268Z,7.68
2023-01-30T11:00:33.810Z,9.77
2023-01-30T11:03:18.385Z,6.55
2023-01-30T11:05:54.524Z,6.93
2023-01-30T11:08:33.499Z,6.35
2023-01-30T11:11:01.479Z,7.90
2023-01-30T11:13:33.521Z,6.03
2023-01-30T11:16:05.980Z,6.22
2023-01-30T11:19:17.822Z,6.13
2023-01-30T11:21:26.996Z,5.85
2023-01-30T11:24:04.782Z,6.63
2023-01-30T11:26:46.686Z,6.57
2023-01-30T11:29:29.851Z,6.65
2023-01-30T11:32:02.807Z,8.32
2023-01-30T11:34:29.699Z,7.53
2023-01-30T11:37:32.915Z,6.93
2023-01-30T11:39:59.668Z,6.13
2023-01-30T11:42:31.403Z,6.65
2023-01-30T11:45:17.337Z,5.90
2023-01-30T11:48:05.194Z,5.28
2023-01-30T11:50:46.848Z,6.07
2023-01-30T11:53:29.277Z,7.10
2023-01-30T11:56:06.458Z,5.75
2023-01-30T11:58:38.677Z,5.95
2023-01-30T12:01:07.513Z,6.18
2023-01-30T12:03:44.655Z,6.03
2023-01-30T12:06:11.734Z,9.75
2023-01-30T12:08:42.857Z,5.43
2023-01-30T12:11:50.431Z,6.45
2023-01-30T12:14:21.257Z,6.10
2023-01-30T12:17:35.275Z,6.90
2023-01-30T12:20:14.140Z,6.35
2023-01-30T12:22:46.875Z,7.25
2023-01-30T12:25:22.436Z,8.88
2023-01-30T12:28:02.133Z,6.78
2023-01-30T12:30:43.564Z,5.45
2023-01-30T12:33:15.691Z,5.97
2023-01-30T12:36:03.125Z,6.60
2023-01-30T12:38:47.686Z,6.13
2023-01-30T12:41:35.606Z,9.70
2023-01-30T12:44:39.451Z,10.40
2023-01-30T12:47:12.132Z,7.20
2023-01-30T12:50:00.175Z,7.15
2023-01-30T12:52:48.283Z,11.65
2023-01-30T12:55:35.688Z,7.68
2023-01-30T12:58:20.393Z,5.90
2023-01-30T13:01:05.471Z,6.53
2023-01-30T13:03:38.021Z,9.63
2023-01-30T13:06:11.330Z,6.05
2023-01-30T13:08:53.869Z,6.72
2023-01-30T13:11:58.281Z,7.65
2023-01-30T13:14:57.040Z,8.70
2023-01-30T13:17:55.827Z,9.38
2023-01-30T13:21:01.513Z,10.98
2023-01-30T13:23:37.020Z,9.63
2023-01-30T13:26:15.143Z,13.73
2023-01-30T13:28:51.351Z,6.75
2023-01-30T13:31:24.717Z,11.93
2023-01-30T13:34:10.319Z,9.55
2023-01-30T13:36:51.956Z,9.10
2023-01-30T13:39:30.539Z,11.85
2023-01-30T13:42:00.449Z,8.93
2023-01-30T13:44:32.820Z,11.40
2023-01-30T13:47:11.932Z,11.68
2023-01-30T13:49:56.954Z,14.63
2023-01-30T13:52:47.459Z,9.93
2023-01-30T13:55:26.034Z,8.52
2023-01-30T13:58:25.104Z,11.40
2023-01-30T14:00:54.378Z,9.63
2023-01-30T14:03:25.409Z,8.20
2023-01-30T14:05:52.086Z,12.63
2023-01-30T14:08:27.933Z,8.88
2023-01-30T14:10:56.302Z,10.50
2023-01-30T14:13:27.636Z,10.30
2023-01-30T14:15:57.945Z,7.68
2023-01-30T14:18:27.385Z,7.78
2023-01-30T14:23:38.451Z,10.95
2023-01-30T14:26:05.081Z,8.63
2023-01-30T14:28:31.669Z,11.18
2023-01-30T14:31:03.431Z,14.98
2023-01-30T14:33:47.571Z,8.43
2023-01-30T14:36:14.137Z,11.13
2023-01-30T14:38:41.600Z,8.07
2023-01-30T14:41:37.441Z,8.63
2023-01-30T14:44:04.010Z,10.13
2023-01-30T14:46:30.686Z,17.48
2023-01-30T14:49:06.799Z,9.70
2023-01-30T14:51:39.367Z,10.45
2023-01-30T14:54:11.595Z,9.20
2023-01-30T14:57:08.120Z,18.90
2023-01-30T14:59:36.784Z,10.07
2023-01-30T15:02:12.461Z,16.93
2023-01-30T15:04:47.427Z,14.77
2023-01-30T15:07:47.309Z,9.95
2023-01-30T15:10:13.928Z,10.65
2023-01-30T15:12:43.215Z,16.40
2023-01-30T15:15:29.827Z,14.57
2023-01-30T15:18:21.815Z,9.32
2023-01-30T15:21:25.973Z,12.80
2023-01-30T15:23:59.595Z,10.85
2023-01-30T15:26:50.467Z,8.93
2023-01-30T15:29:49.231Z,10.73
2023-01-30T15:32:26.770Z,12.52
2023-01-30T15:35:01.200Z,18.02
2023-01-30T15:37:34.023Z,9.25
2023-01-30T15:40:15.673Z,9.93
2023-01-30T15:42:51.519Z,9.30
2023-01-30T15:45:24.748Z,16.45
2023-01-30T15:48:06.795Z,10.32
2023-01-30T15:50:33.540Z,11.38
2023-01-30T15:53:00.403Z,14.40
2023-01-30T15:55:28.522Z,10.85
2023-01-30T15:58:09.535Z,10.05
2023-01-30T16:00:39.579Z,9.07
2023-01-30T16:03:13.218Z,5.97
2023-01-30T16:05:51.290Z,5.75
2023-01-30T16:08:37.063Z,9.15
2023-01-30T16:11:03.751Z,8.35
2023-01-30T16:13:33.219Z,8.90
2023-01-30T16:16:12.817Z,4.15
2023-01-30T16:18:42.636Z,7.75
2023-01-30T16:21:25.727Z,7.25
2023-01-30T16:24:14.160Z,9.02
2023-01-30T16:26:44.723Z,10.27
2023-01-30T16:29:23.188Z,10.38
2023-01-30T16:31:52.814Z,4.20
2023-01-30T16:34:28.350Z,7.43
2023-01-30T16:36:55.916Z,5.85
2023-01-30T16:39:34.289Z,8.32
2023-01-30T16:42:04.168Z,6.60
2023-01-30T16:44:32.254Z,9.50
2023-01-30T16:47:25.496Z,6.13
2023-01-30T16:49:54.666Z,5.68
2023-01-30T16:52:31.079Z,5.82
2023-01-30T16:55:01.015Z,8.50
2023-01-30T16:57:37.709Z,7.38
2023-01-30T17:00:31.929Z,7.75
2023-01-30T17:03:01.995Z,5.35
2023-01-30T17:05:31.451Z,6.47
2023-01-30T17:10:28.032Z,8.50
2023-01-30T17:12:55.812Z,6.85
2023-01-30T17:15:22.427Z,11.10
2023-01-30T17:17:49.030Z,8.80
2023-01-30T17:20:16.606Z,11.18
2023-01-30T17:22:46.526Z,12.60
2023-01-30T17:25:30.222Z,7.80
2023-01-30T17:27:58.108Z,7.80
2023-01-30T17:30:24.857Z,9.23
2023-01-30T17:32:51.503Z,6.88
2023-01-30T17:35:18.633Z,8.23
2023-01-30T17:37:53.404Z,7.30
2023-01-30T17:40:46.776Z,8.13
2023-01-30T17:43:13.570Z,7.70
2023-01-30T17:45:40.557Z,7.32
2023-01-30T17:48:07.608Z,9.77
2023-01-30T17:50:35.664Z,9.93
2023-01-30T17:53:02.675Z,10.77
2023-01-30T17:55:29.364Z,15.68
2023-01-30T17:57:56.584Z,11.77
2023-01-30T18:00:23.609Z,12.52
2023-01-30T18:02:50.290Z,10.27
2023-01-30T18:05:17.035Z,10.48
2023-01-30T18:07:44.262Z,9.02
2023-01-30T18:10:15.617Z,10.02
2023-01-30T18:12:42.759Z,8.45
2023-01-30T18:15:10.598Z,12.00
2023-01-30T18:17:46.070Z,8.00
2023-01-30T18:20:15.823Z,9.52
2023-01-30T18:22:42.518Z,6.95
2023-01-30T18:25:09.990Z,9.45
2023-01-30T18:27:36.772Z,11.07
2023-01-30T18:30:03.705Z,12.10
2023-01-30T18:32:31.956Z,10.95
2023-01-30T18:35:00.099Z,17.50
2023-01-30T18:37:26.750Z,16.05
2023-01-30T18:39:53.475Z,14.32
2023-01-30T18:42:20.237Z,15.43
2023-01-30T18:44:46.916Z,12.15
2023-01-30T18:47:13.694Z,10.82
2023-01-30T18:49:40.448Z,16.50
2023-01-30T18:52:07.132Z,13.73
2023-01-30T18:54:33.997Z,17.15
2023-01-30T18:57:00.629Z,18.10
2023-01-30T18:59:27.354Z,12.60
2023-01-30T19:01:54.000Z,12.82
2023-01-30T19:04:20.638Z,14.77
2023-01-30T19:06:47.272Z,15.13
2023-01-30T19:09:16.141Z,12.15
2023-01-30T19:12:01.576Z,14.68
2023-01-30T19:14:28.322Z,15.75
2023-01-30T19:16:55.037Z,12.02
2023-01-30T19:19:21.999Z,11.23
2023-01-30T19:21:49.903Z,15.68
2023-01-30T19:24:17.075Z,13.45
2023-01-30T19:26:44.145Z,16.52
2023-01-30T19:29:11.054Z,15.95
2023-01-30T19:31:37.907Z,14.38
2023-01-30T19:34:06.325Z,15.15
2023-01-30T19:36:34.767Z,18.08
2023-01-30T19:39:03.665Z,16.17
2023-01-30T19:41:33.251Z,24.73
2023-01-30T19:44:01.730Z,21.70
2023-01-30T19:46:29.334Z,18.43
2023-01-30T19:51:28.299Z,16.05
2023-01-30T19:53:57.038Z,11.95
2023-01-30T19:56:25.492Z,16.90
2023-01-30T19:58:55.064Z,20.10
2023-01-30T20:01:24.091Z,20.23
2023-01-30T20:03:51.329Z,19.38
2023-01-30T20:06:21.375Z,12.68
2023-01-30T20:08:50.350Z,18.40
2023-01-30T20:11:19.742Z,14.88
2023-01-30T20:16:18.464Z,22.02
2023-01-30T20:18:48.304Z,18.73
2023-01-30T20:21:19.912Z,21.33
2023-01-30T20:23:47.704Z,20.42
2023-01-30T20:26:22.461Z,17.42
2023-01-30T20:28:49.700Z,19.15
2023-01-30T20:31:19.860Z,15.75
2023-01-30T20:33:47.448Z,22.30
2023-01-30T20:36:18.658Z,18.42
2023-01-30T20:38:47.099Z,20.25
2023-01-30T20:41:16.780Z,21.05
2023-01-30T20:43:45.987Z,21.42
2023-01-30T20:46:18.262Z,17.13
2023-01-30T20:48:45.673Z,21.13
2023-01-30T20:51:18.188Z,15.65
2023-01-30T20:53:59.555Z,17.77
2023-01-30T20:56:30.922Z,13.32
2023-01-30T20:58:57.769Z,16.77
2023-01-30T21:01:25.141Z,21.48
2023-01-30T21:03:53.595Z,12.85
2023-01-30T21:06:41.532Z,13.73
2023-01-30T21:09:18.498Z,15.50
2023-01-30T21:11:45.722Z,17.83
2023-01-30T21:14:13.146Z,13.75
2023-01-30T21:16:40.382Z,17.55
2023-01-30T21:19:09.971Z,13.73
2023-01-30T21:21:45.493Z,13.85
2023-01-30T21:24:14.139Z,15.38
2023-01-30T21:26:46.003Z,21.38
2023-01-30T21:29:15.538Z,16.02
2023-01-30T21:34:11.218Z,17.42
2023-01-30T21:36:38.036Z,20.73
2023-01-30T21:39:23.215Z,14.05
2023-01-30T21:42:08.319Z,16.50
2023-01-30T21:44:40.967Z,13.40
2023-01-30T21:47:07.792Z,24.10
2023-01-30T21:49:34.853Z,17.38
2023-01-30T21:52:01.633Z,14.27
2023-01-30T21:54:28.407Z,16.88
2023-01-30T21:56:55.688Z,12.43
2023-01-30T21:59:22.398Z,14.95
2023-01-30T22:01:49.204Z,13.18
2023-01-30T22:04:16.400Z,15.40
2023-01-30T22:06:43.657Z,13.18
2023-01-30T22:09:14.229Z,11.15
2023-01-30T22:11:41.296Z,13.27
2023-01-30T22:14:08.021Z,12.35
2023-01-30T22:16:34.741Z,11.02
2023-01-30T22:19:04.034Z,10.60
2023-01-30T22:21:33.716Z,9.27
2023-01-30T22:24:02.327Z,13.27
2023-01-30T22:26:29.237Z,12.53
2023-01-30T22:28:57.434Z,12.77
2023-01-30T22:31:25.902Z,14.73
2023-01-30T22:33:55.000Z,12.67
2023-01-30T22:36:29.468Z,12.77
2023-01-30T22:38:56.269Z,16.55
2023-01-30T22:41:25.740Z,15.00
2023-01-30T22:46:27.702Z,16.23
2023-01-30T22:48:54.874Z,13.57
2023-01-30T22:51:24.533Z,13.25
2023-01-30T22:54:05.671Z,13.60
2023-01-30T22:56:51.575Z,7.88
2023-01-30T22:59:18.237Z,17.95
2023-01-30T23:01:47.679Z,15.55
2023-01-30T23:04:22.679Z,11.90
2023-01-30T23:06:51.903Z,14.10
2023-01-30T23:09:21.302Z,18.58
2023-01-30T23:14:36.891Z,16.65
2023-01-30T23:17:26.870Z,13.50
2023-01-30T23:19:56.699Z,14.93
2023-01-30T23:22:23.680Z,18.88
2023-01-30T23:24:51.492Z,17.30
2023-01-30T23:27:18.873Z,11.38
2023-01-30T23:29:45.494Z,19.15
2023-01-30T23:32:12.228Z,9.75
2023-01-30T23:34:39.060Z,10.18
2023-01-30T23:37:05.824Z,14.98
2023-01-30T23:39:32.422Z,14.45
2023-01-30T23:41:59.087Z,18.98
2023-01-30T23:44:25.692Z,14.50
2023-01-30T23:46:52.689Z,16.23
2023-01-30T23:49:19.371Z,21.92
2023-01-30T23:51:46.114Z,14.27
2023-01-30T23:54:13.945Z,15.07
2023-01-30T23:56:43.713Z,15.68
2023-01-30T23:59:11.298Z,17.52
